Time;durP1;ratioP1;P1;durP2;ratioP2;P2;SDS_P1;SDS_P2;PMS_P1;PMS_P2;Temp;Humidity;BMP_temperature;BMP_pressure;BME280_temperature;BME280_humidity;BME280_pressure;Samples;Min_cycle;Max_cycle;Signal;HPM_P1;HPM_P2
2022/09/15 00:00:32;;;;;;;9.23;4.93;;;;;;;;;;6236216;23;20016;-82
2022/09/15 00:03:29;;;;;;;8.95;5.38;;;;;;;;;;6257538;23;20446;-81
2022/09/15 00:06:15;;;;;;;14.15;5.15;;;;;;;;;;6235873;23;20365;-82
2022/09/15 00:09:03;;;;;;;7.38;5.20;;;;;;;;;;6258805;23;20012;-81
2022/09/15 00:12:01;;;;;;;7.55;4.90;;;;;;;;;;6258827;23;20024;-81
2022/09/15 00:15:05;;;;;;;12.30;5.15;;;;;;;;;;6236089;23;20020;-82
2022/09/15 00:18:00;;;;;;;12.77;5.15;;;;;;;;;;6236353;23;20016;-81
2022/09/15 00:21:03;;;;;;;9.50;5.50;;;;;;;;;;6248297;23;20020;-81
2022/09/15 00:23:48;;;;;;;11.05;5.28;;;;;;;;;;6257713;23;20024;-83
2022/09/15 00:27:20;;;;;;;13.10;5.55;;;;;;;;;;6258674;23;20356;-82
2022/09/15 00:30:28;;;;;;;10.23;5.10;;;;;;;;;;6214975;23;20027;-82
2022/09/15 00:33:53;;;;;;;11.60;6.35;;;;;;;;;;6257164;23;20020;-82
2022/09/15 00:36:42;;;;;;;13.05;5.43;;;;;;;;;;6257181;23;20016;-82
2022/09/15 00:39:32;;;;;;;9.98;5.05;;;;;;;;;;6236097;23;20016;-83
2022/09/15 00:42:20;;;;;;;12.93;5.78;;;;;;;;;;6258238;23;20020;-85
2022/09/15 00:45:14;;;;;;;8.73;5.07;;;;;;;;;;6257720;23;20020;-82
2022/09/15 00:48:52;;;;;;;11.32;5.10;;;;;;;;;;6258566;23;20020;-82
2022/09/15 00:55:55;;;;;;;7.30;4.95;;;;;;;;;;6165580;23;20014;-83
2022/09/15 00:59:13;;;;;;;10.25;5.03;;;;;;;;;;6174847;23;20479;-82
2022/09/15 01:02:17;;;;;;;10.13;5.40;;;;;;;;;;6258021;23;20020;-83
2022/09/15 01:05:06;;;;;;;9.98;5.40;;;;;;;;;;6258361;23;20019;-81
2022/09/15 01:07:54;;;;;;;11.63;5.65;;;;;;;;;;6257889;23;20016;-81
2022/09/15 01:10:40;;;;;;;12.32;6.85;;;;;;;;;;6258141;23;20025;-81
2022/09/15 01:13:26;;;;;;;19.65;10.80;;;;;;;;;;6258198;23;20019;-81
2022/09/15 01:16:19;;;;;;;20.08;10.23;;;;;;;;;;6258421;23;20016;-82
2022/09/15 01:19:23;;;;;;;17.27;8.13;;;;;;;;;;6256300;23;20023;-81
2022/09/15 01:22:16;;;;;;;24.25;11.15;;;;;;;;;;6257682;23;20434;-80
2022/09/15 01:25:09;;;;;;;46.67;18.65;;;;;;;;;;6258243;23;20020;-80
2022/09/15 01:28:29;;;;;;;16.00;7.03;;;;;;;;;;6257359;23;20016;-80
2022/09/15 01:33:02;;;;;;;18.40;10.07;;;;;;;;;;6202509;23;20016;-81
2022/09/15 01:38:50;;;;;;;11.30;6.10;;;;;;;;;;6257717;23;20016;-83
2022/09/15 01:41:49;;;;;;;10.82;5.72;;;;;;;;;;6234945;23;20020;-81
2022/09/15 01:44:42;;;;;;;9.57;5.90;;;;;;;;;;6235905;23;20443;-82
2022/09/15 01:47:34;;;;;;;10.50;4.82;;;;;;;;;;6257577;23;20012;-81
2022/09/15 01:50:23;;;;;;;13.00;4.53;;;;;;;;;;6257932;23;20020;-81
2022/09/15 01:53:14;;;;;;;7.82;4.60;;;;;;;;;;6235446;23;20016;-82
2022/09/15 01:56:23;;;;;;;9.52;4.78;;;;;;;;;;6257666;23;20016;-82
2022/09/15 01:59:15;;;;;;;;;;;;;;;;;;6256640;23;20441;-82
2022/09/15 02:02:50;;;;;;;9.38;4.15;;;;;;;;;;6257173;23;19907;-82
2022/09/15 02:05:43;;;;;;;9.55;4.50;;;;;;;;;;6135284;23;20018;-81
2022/09/15 02:08:57;;;;;;;10.98;4.80;;;;;;;;;;6135613;23;20344;-83
2022/09/15 02:51:39;;;;;;;8.27;4.88;;;;;;;;;;6226808;23;20450;-79
2022/09/15 02:54:24;;;;;;;9.85;4.88;;;;;;;;;;6227387;23;20342;-80
2022/09/15 02:57:13;;;;;;;7.82;4.95;;;;;;;;;;6226893;23;20008;-80
2022/09/15 03:00:13;;;;;;;10.68;4.75;;;;;;;;;;6227033;23;20020;-80
2022/09/15 03:02:58;;;;;;;7.88;4.45;;;;;;;;;;6226690;23;20340;-80
2022/09/15 03:05:44;;;;;;;5.82;4.30;;;;;;;;;;6226528;23;20020;-80
2022/09/15 03:08:30;;;;;;;7.45;4.25;;;;;;;;;;6226660;23;20016;-80
2022/09/15 03:11:15;;;;;;;13.00;4.57;;;;;;;;;;6227028;23;20020;-79
2022/09/15 03:14:04;;;;;;;12.00;4.55;;;;;;;;;;6228309;23;20016;-81
2022/09/15 03:16:50;;;;;;;9.27;4.85;;;;;;;;;;6228980;23;20020;-79
2022/09/15 03:19:36;;;;;;;9.00;4.30;;;;;;;;;;6228951;23;20438;-80
2022/09/15 03:22:21;;;;;;;8.00;4.60;;;;;;;;;;6228737;23;20020;-80
2022/09/15 03:25:08;;;;;;;10.60;4.82;;;;;;;;;;6229333;23;20020;-80
2022/09/15 03:27:53;;;;;;;7.25;4.45;;;;;;;;;;6238938;23;20020;-80
2022/09/15 03:30:41;;;;;;;10.15;4.72;;;;;;;;;;6232168;23;20020;-81
2022/09/15 03:33:26;;;;;;;10.00;4.85;;;;;;;;;;6228464;23;20434;-81
2022/09/15 03:36:12;;;;;;;9.80;5.18;;;;;;;;;;6228547;23;20020;-81
2022/09/15 03:38:58;;;;;;;15.80;8.45;;;;;;;;;;6228618;23;20016;-83
2022/09/15 03:41:43;;;;;;;14.43;7.07;;;;;;;;;;6228701;23;20446;-81
2022/09/15 03:44:28;;;;;;;9.02;6.00;;;;;;;;;;6228685;23;20016;-80
2022/09/15 03:47:14;;;;;;;11.82;5.80;;;;;;;;;;6228567;23;20347;-82
2022/09/15 03:49:59;;;;;;;7.93;5.03;;;;;;;;;;6243966;23;20016;-80
2022/09/15 03:52:45;;;;;;;8.57;5.20;;;;;;;;;;6259277;23;20020;-80
2022/09/15 03:55:31;;;;;;;10.73;4.50;;;;;;;;;;6258815;23;20457;-80
2022/09/15 03:58:17;;;;;;;10.90;5.03;;;;;;;;;;6258900;23;20016;-80
2022/09/15 04:01:03;;;;;;;11.90;4.45;;;;;;;;;;6258710;23;20446;-80
2022/09/15 04:03:48;;;;;;;9.98;6.13;;;;;;;;;;6258745;23;20342;-83
2022/09/15 04:06:34;;;;;;;9.90;5.22;;;;;;;;;;6258275;23;20016;-79
2022/09/15 04:40:23;;;;;;;11.10;4.20;;;;;;;;;;6260462;23;20016;-81
2022/09/15 04:43:14;;;;;;;10.68;4.43;;;;;;;;;;6279597;23;19996;-87
2022/09/15 05:33:57;;;;;;;5.80;3.33;;;;;;;;;;6234407;23;20016;-83
2022/09/15 05:36:42;;;;;;;8.23;3.08;;;;;;;;;;6258037;23;20028;-83
2022/09/15 05:52:34;;;;;;;7.40;3.60;;;;;;;;;;6281637;22;20020;-83
2022/09/15 05:55:19;;;;;;;5.32;3.45;;;;;;;;;;6234835;23;20019;-83
2022/09/15 05:58:05;;;;;;;13.98;3.78;;;;;;;;;;6233193;23;20027;-82
2022/09/15 06:00:52;;;;;;;7.28;3.47;;;;;;;;;;6240422;23;20016;-83
2022/09/15 06:03:37;;;;;;;10.02;2.88;;;;;;;;;;6235213;23;20016;-82
2022/09/15 06:06:25;;;;;;;10.77;3.30;;;;;;;;;;6257392;23;20016;-84
2022/09/15 06:09:10;;;;;;;6.53;3.13;;;;;;;;;;6234997;23;20016;-84
2022/09/15 06:11:56;;;;;;;10.20;2.90;;;;;;;;;;6234330;23;20023;-83
2022/09/15 06:14:49;;;;;;;7.55;2.97;;;;;;;;;;6256619;23;20016;-83
2022/09/15 06:17:34;;;;;;;6.57;2.70;;;;;;;;;;6257262;23;20020;-83
2022/09/15 06:20:20;;;;;;;14.30;3.45;;;;;;;;;;6257174;23;20016;-84
2022/09/15 06:23:05;;;;;;;5.60;2.90;;;;;;;;;;6255617;23;20019;-83
2022/09/15 06:25:52;;;;;;;6.28;2.95;;;;;;;;;;6255909;23;20016;-83
2022/09/15 06:28:41;;;;;;;10.10;2.83;;;;;;;;;;6235554;23;20012;-85
2022/09/15 06:32:19;;;;;;;;;;;;;;;;;;;;;
2022/09/15 06:35:10;;;;;;;9.98;3.50;;;;;;;;;;6245945;23;20345;-84
2022/09/15 06:38:10;;;;;;;10.20;3.40;;;;;;;;;;6235828;23;20008;-84
2022/09/15 06:40:59;;;;;;;11.20;4.00;;;;;;;;;;6256417;23;20016;-85
2022/09/15 06:43:45;;;;;;;11.48;3.85;;;;;;;;;;6256105;23;20019;-83
2022/09/15 06:46:31;;;;;;;13.52;5.22;;;;;;;;;;6214084;23;20016;-83
2022/09/15 06:49:16;;;;;;;8.68;3.80;;;;;;;;;;6234194;23;20020;-83
2022/09/15 06:52:03;;;;;;;8.52;3.28;;;;;;;;;;6257470;23;20023;-84
2022/09/15 06:54:50;;;;;;;9.60;3.70;;;;;;;;;;6257253;23;20330;-82
2022/09/15 06:57:35;;;;;;;10.88;3.83;;;;;;;;;;6256319;23;20020;-84
2022/09/15 07:00:21;;;;;;;10.23;3.78;;;;;;;;;;6256665;23;20362;-83
2022/09/15 07:03:06;;;;;;;14.88;5.03;;;;;;;;;;6234200;23;20421;-82
2022/09/15 07:05:51;;;;;;;8.75;4.30;;;;;;;;;;6256696;23;20453;-82
2022/09/15 07:08:37;;;;;;;14.35;4.82;;;;;;;;;;6256622;23;20020;-82
2022/09/15 07:11:24;;;;;;;11.35;4.88;;;;;;;;;;6256503;23;20016;-82
2022/09/15 07:14:25;;;;;;;9.07;4.95;;;;;;;;;;6257592;23;20020;-82
2022/09/15 07:17:17;;;;;;;13.55;6.35;;;;;;;;;;6234981;23;20020;-83
2022/09/15 07:20:18;;;;;;;16.60;8.57;;;;;;;;;;6233757;23;20012;-82
2022/09/15 07:23:47;;;;;;;11.32;6.95;;;;;;;;;;6233760;23;20020;-83
2022/09/15 07:26:39;;;;;;;14.50;8.13;;;;;;;;;;6213932;23;20020;-84
2022/09/15 07:29:37;;;;;;;26.90;9.13;;;;;;;;;;6255900;23;20024;-77
2022/09/15 07:32:22;;;;;;;19.50;11.80;;;;;;;;;;6257145;23;20020;-76
2022/09/15 07:35:08;;;;;;;20.95;8.77;;;;;;;;;;6257107;23;20442;-80
2022/09/15 07:37:54;;;;;;;14.63;6.60;;;;;;;;;;6258761;23;20338;-77
2022/09/15 07:40:39;;;;;;;20.30;9.52;;;;;;;;;;6258492;23;20016;-81
2022/09/15 07:43:25;;;;;;;20.25;10.27;;;;;;;;;;6259124;23;20020;-80
2022/09/15 07:46:11;;;;;;;12.88;8.73;;;;;;;;;;6258888;23;20342;-81
2022/09/15 07:48:56;;;;;;;17.00;7.45;;;;;;;;;;6260238;23;20012;-81
2022/09/15 07:51:42;;;;;;;17.08;6.57;;;;;;;;;;6258779;23;20020;-83
2022/09/15 07:54:27;;;;;;;10.13;5.47;;;;;;;;;;6246968;23;20346;-82
2022/09/15 07:57:13;;;;;;;16.02;5.88;;;;;;;;;;6257193;23;20020;-81
2022/09/15 07:59:58;;;;;;;14.15;5.72;;;;;;;;;;6258113;23;20012;-82
2022/09/15 08:02:44;;;;;;;15.45;5.35;;;;;;;;;;6259745;23;20020;-83
2022/09/15 08:05:31;;;;;;;14.45;6.80;;;;;;;;;;6259175;23;20425;-83
2022/09/15 08:08:16;;;;;;;15.20;6.68;;;;;;;;;;6258334;23;20426;-83
2022/09/15 08:11:10;;;;;;;10.45;5.40;;;;;;;;;;6260392;23;20020;-83
2022/09/15 08:14:00;;;;;;;10.73;5.40;;;;;;;;;;6236438;23;20023;-82
2022/09/15 08:16:45;;;;;;;12.35;5.32;;;;;;;;;;6261641;23;20020;-83
2022/09/15 08:19:32;;;;;;;15.02;5.70;;;;;;;;;;6264490;23;20012;-82
2022/09/15 08:22:18;;;;;;;12.55;5.20;;;;;;;;;;6266443;23;20016;-82
2022/09/15 08:25:05;;;;;;;13.55;4.97;;;;;;;;;;6269116;23;20434;-83
2022/09/15 08:27:52;;;;;;;24.48;5.35;;;;;;;;;;6247020;23;20015;-82
2022/09/15 08:30:38;;;;;;;14.60;4.75;;;;;;;;;;6267770;23;20016;-83
2022/09/15 08:33:24;;;;;;;12.23;5.18;;;;;;;;;;6260125;23;20021;-83
2022/09/15 08:36:10;;;;;;;18.73;7.88;;;;;;;;;;6260666;23;20362;-83
2022/09/15 08:38:56;;;;;;;9.50;4.85;;;;;;;;;;6263640;23;20012;-83
2022/09/15 08:41:48;;;;;;;97.43;80.82;;;;;;;;;;6258504;23;20016;-83
2022/09/15 08:44:54;;;;;;;16.25;9.88;;;;;;;;;;6258480;23;20015;-82
2022/09/15 08:47:44;;;;;;;16.90;8.40;;;;;;;;;;6256855;23;20446;-84
2022/09/15 08:50:40;;;;;;;32.08;23.30;;;;;;;;;;6257831;23;20031;-82
2022/09/15 08:53:34;;;;;;;27.67;16.48;;;;;;;;;;6257762;23;20341;-79
2022/09/15 08:56:20;;;;;;;11.68;5.32;;;;;;;;;;6258374;23;20015;-80
2022/09/15 08:59:07;;;;;;;8.90;4.18;;;;;;;;;;6258218;23;20015;-84
2022/09/15 09:02:04;;;;;;;7.93;3.30;;;;;;;;;;6258109;23;20020;-83
2022/09/15 09:05:08;;;;;;;6.70;3.55;;;;;;;;;;6258415;23;20020;-83
2022/09/15 09:08:18;;;;;;;6.85;3.17;;;;;;;;;;6259777;23;20020;-82
2022/09/15 09:11:16;;;;;;;6.10;3.00;;;;;;;;;;6257410;23;20020;-82
2022/09/15 09:14:09;;;;;;;11.23;3.60;;;;;;;;;;6256554;23;20438;-82
2022/09/15 09:17:01;;;;;;;7.82;3.75;;;;;;;;;;6258023;23;20387;-85
2022/09/15 09:20:23;;;;;;;9.70;3.40;;;;;;;;;;6257948;23;20013;-82
2022/09/15 09:23:13;;;;;;;8.50;4.55;;;;;;;;;;6258477;23;20441;-83
2022/09/15 09:26:00;;;;;;;7.32;2.97;;;;;;;;;;6259373;23;20019;-82
2022/09/15 09:28:54;;;;;;;8.23;2.88;;;;;;;;;;6261487;23;20020;-83
2022/09/15 09:31:42;;;;;;;11.43;4.20;;;;;;;;;;6259380;23;20015;-82
2022/09/15 09:34:32;;;;;;;8.00;3.33;;;;;;;;;;6258234;23;20020;-83
2022/09/15 09:37:18;;;;;;;6.13;2.10;;;;;;;;;;6259221;23;20020;-82
2022/09/15 09:40:04;;;;;;;6.78;2.85;;;;;;;;;;6268232;23;20012;-83
2022/09/15 09:42:53;;;;;;;5.10;2.90;;;;;;;;;;6274347;22;20016;-83
2022/09/15 09:45:38;;;;;;;6.00;3.03;;;;;;;;;;6258180;23;20020;-79
2022/09/15 09:48:26;;;;;;;8.15;2.85;;;;;;;;;;6257869;23;20016;-77
2022/09/15 09:51:51;;;;;;;11.48;2.83;;;;;;;;;;6257554;23;20434;-78
2022/09/15 09:54:36;;;;;;;11.73;3.00;;;;;;;;;;6247104;23;20019;-81
2022/09/15 09:57:30;;;;;;;12.23;3.30;;;;;;;;;;6257717;23;20020;-82
2022/09/15 10:00:37;;;;;;;6.88;3.00;;;;;;;;;;6257746;23;20019;-79
2022/09/15 10:03:24;;;;;;;6.55;2.80;;;;;;;;;;6257690;23;20016;-77
2022/09/15 10:06:10;;;;;;;5.88;2.50;;;;;;;;;;6257624;23;20016;-78
2022/09/15 10:09:08;;;;;;;11.25;3.28;;;;;;;;;;6257181;23;20024;-78
2022/09/15 10:11:57;;;;;;;10.10;3.22;;;;;;;;;;6257469;23;20020;-78
2022/09/15 10:14:44;;;;;;;9.35;3.35;;;;;;;;;;6257476;23;20046;-79
2022/09/15 10:17:35;;;;;;;7.47;3.50;;;;;;;;;;6257163;23;20020;-79
2022/09/15 10:20:31;;;;;;;10.00;4.32;;;;;;;;;;6257603;23;20012;-79
2022/09/15 10:23:16;;;;;;;10.10;3.75;;;;;;;;;;6256894;23;20020;-79
2022/09/15 10:26:14;;;;;;;9.68;4.28;;;;;;;;;;6248777;23;20020;-78
2022/09/15 10:29:10;;;;;;;12.23;3.78;;;;;;;;;;6257584;23;20012;-78
2022/09/15 10:32:14;;;;;;;8.00;3.35;;;;;;;;;;6256694;23;20020;-79
2022/09/15 10:35:02;;;;;;;6.78;2.90;;;;;;;;;;6257283;23;20016;-78
2022/09/15 10:37:57;;;;;;;10.13;3.50;;;;;;;;;;6257162;23;20016;-79
2022/09/15 10:40:55;;;;;;;12.93;3.55;;;;;;;;;;6256752;23;20012;-78
2022/09/15 10:44:12;;;;;;;6.07;2.47;;;;;;;;;;6257140;23;20016;-78
2022/09/15 10:47:15;;;;;;;8.70;3.10;;;;;;;;;;6244658;23;20020;-78
2022/09/15 10:50:06;;;;;;;5.55;2.83;;;;;;;;;;6256381;23;20016;-78
2022/09/15 10:53:18;;;;;;;8.52;3.10;;;;;;;;;;6254441;23;20016;-79
2022/09/15 10:56:06;;;;;;;8.18;2.70;;;;;;;;;;6256954;23;20020;-78
2022/09/15 10:58:53;;;;;;;5.32;2.70;;;;;;;;;;6257320;23;20434;-78
2022/09/15 11:02:06;;;;;;;6.55;2.88;;;;;;;;;;6256986;23;20369;-79
2022/09/15 11:05:18;;;;;;;8.43;2.80;;;;;;;;;;6256976;23;20342;-81
2022/09/15 11:08:32;;;;;;;6.78;4.15;;;;;;;;;;6255166;23;20015;-78
2022/09/15 11:11:41;;;;;;;7.70;3.83;;;;;;;;;;6256895;23;20020;-79
2022/09/15 11:14:51;;;;;;;8.65;3.60;;;;;;;;;;6256285;23;20020;-78
2022/09/15 11:18:07;;;;;;;11.38;4.47;;;;;;;;;;6257385;23;20016;-79
2022/09/15 11:21:41;;;;;;;9.15;3.65;;;;;;;;;;6256130;23;20012;-78
2022/09/15 11:24:41;;;;;;;9.05;3.53;;;;;;;;;;6125312;23;20026;-79
2022/09/15 11:27:39;;;;;;;15.13;3.45;;;;;;;;;;6257169;23;20016;-79
2022/09/15 11:30:33;;;;;;;6.65;3.70;;;;;;;;;;6257009;23;20020;-79
2022/09/15 11:33:31;;;;;;;14.65;5.20;;;;;;;;;;6257456;23;20016;-78
2022/09/15 11:36:39;;;;;;;11.93;4.55;;;;;;;;;;6258268;23;20023;-78
2022/09/15 11:39:33;;;;;;;11.52;4.60;;;;;;;;;;6258989;23;20012;-78
2022/09/15 11:42:25;;;;;;;9.65;4.85;;;;;;;;;;6258504;23;20020;-78
2022/09/15 11:45:20;;;;;;;8.65;5.70;;;;;;;;;;6258557;23;20019;-78
2022/09/15 11:48:27;;;;;;;7.00;4.25;;;;;;;;;;6258531;23;20016;-78
2022/09/15 11:51:17;;;;;;;10.30;3.80;;;;;;;;;;6258255;23;20283;-78
2022/09/15 11:54:12;;;;;;;6.95;4.30;;;;;;;;;;6250942;23;20024;-78
2022/09/15 11:56:59;;;;;;;9.80;6.05;;;;;;;;;;6258492;23;20016;-78
2022/09/15 12:00:09;;;;;;;7.47;4.40;;;;;;;;;;6257618;23;20012;-78
2022/09/15 12:03:25;;;;;;;10.38;4.93;;;;;;;;;;6258828;23;20012;-77
2022/09/15 12:06:19;;;;;;;7.78;4.32;;;;;;;;;;6260916;23;20012;-80
2022/09/15 12:09:05;;;;;;;11.40;4.97;;;;;;;;;;6265784;23;20020;-80
2022/09/15 12:11:59;;;;;;;15.38;7.20;;;;;;;;;;6259370;23;20438;-79
2022/09/15 12:14:51;;;;;;;20.50;6.80;;;;;;;;;;6258398;23;20019;-80
2022/09/15 12:18:21;;;;;;;11.30;6.40;;;;;;;;;;6258477;23;20020;-80
2022/09/15 12:21:56;;;;;;;14.25;5.85;;;;;;;;;;6210921;23;20024;-79
2022/09/15 12:25:09;;;;;;;11.05;4.15;;;;;;;;;;6257968;23;20019;-81
2022/09/15 12:28:22;;;;;;;11.18;4.88;;;;;;;;;;6258757;23;20020;-80
2022/09/15 12:31:26;;;;;;;7.95;2.90;;;;;;;;;;6258233;23;20020;-79
2022/09/15 12:34:24;;;;;;;6.65;3.75;;;;;;;;;;6258619;23;20039;-80
2022/09/15 12:37:14;;;;;;;11.77;4.53;;;;;;;;;;6257153;23;20020;-76
2022/09/15 12:39:58;;;;;;;14.75;5.00;;;;;;;;;;6257497;23;20016;-78
2022/09/15 12:42:44;;;;;;;9.85;4.57;;;;;;;;;;6257881;23;20016;-77
2022/09/15 12:45:34;;;;;;;4.55;3.50;;;;;;;;;;6258206;23;20020;-79
2022/09/15 12:48:27;;;;;;;13.57;4.20;;;;;;;;;;6258752;23;20020;-78
2022/09/15 12:51:21;;;;;;;8.60;3.40;;;;;;;;;;6258813;23;20338;-78
2022/09/15 12:54:08;;;;;;;7.78;4.07;;;;;;;;;;6257445;23;20020;-78
2022/09/15 12:56:55;;;;;;;8.25;4.10;;;;;;;;;;6258098;23;20017;-79
2022/09/15 12:59:40;;;;;;;8.30;3.83;;;;;;;;;;6257755;23;20012;-79
2022/09/15 13:02:55;;;;;;;8.15;3.45;;;;;;;;;;6257680;23;20024;-78
2022/09/15 13:05:41;;;;;;;10.25;6.07;;;;;;;;;;6249004;23;20024;-78
2022/09/15 13:08:29;;;;;;;14.50;5.70;;;;;;;;;;6257350;23;20446;-77
2022/09/15 13:11:38;;;;;;;16.17;5.35;;;;;;;;;;6258222;23;20016;-77
2022/09/15 13:14:26;;;;;;;13.70;6.10;;;;;;;;;;6257802;23;20012;-78
2022/09/15 13:17:17;;;;;;;17.13;5.95;;;;;;;;;;6257936;23;20020;-78
2022/09/15 13:20:10;;;;;;;20.30;7.55;;;;;;;;;;6258385;23;20401;-78
2022/09/15 13:22:58;;;;;;;13.32;6.35;;;;;;;;;;6257453;23;20024;-78
2022/09/15 13:25:45;;;;;;;14.57;6.78;;;;;;;;;;6257793;23;20020;-77
2022/09/15 13:28:30;;;;;;;16.77;7.55;;;;;;;;;;6257327;23;20020;-78
2022/09/15 13:31:33;;;;;;;25.05;7.57;;;;;;;;;;6257337;23;20354;-78
2022/09/15 13:34:28;;;;;;;14.50;6.70;;;;;;;;;;6257776;23;20016;-78
2022/09/15 13:37:35;;;;;;;13.43;6.40;;;;;;;;;;6257588;23;20020;-81
2022/09/15 13:40:39;;;;;;;15.38;7.05;;;;;;;;;;6257684;23;20016;-84
2022/09/15 13:43:30;;;;;;;14.18;7.22;;;;;;;;;;6257049;23;20012;-82
2022/09/15 13:46:40;;;;;;;21.73;9.70;;;;;;;;;;6257658;23;20016;-83
2022/09/15 13:49:36;;;;;;;35.65;17.38;;;;;;;;;;6257035;23;20020;-85
2022/09/15 13:52:33;;;;;;;24.20;11.02;;;;;;;;;;6233843;23;20418;-84
2022/09/15 13:55:25;;;;;;;23.90;10.00;;;;;;;;;;6256723;23;20430;-81
2022/09/15 13:58:18;;;;;;;17.98;7.35;;;;;;;;;;6257124;23;20342;-81
2022/09/15 14:01:05;;;;;;;17.85;9.90;;;;;;;;;;6258418;23;20008;-82
2022/09/15 14:03:55;;;;;;;23.98;12.77;;;;;;;;;;6256966;23;20019;-82
2022/09/15 14:06:44;;;;;;;21.35;10.68;;;;;;;;;;6257383;23;20020;-83
2022/09/15 14:09:43;;;;;;;21.27;9.93;;;;;;;;;;6257326;23;20012;-78
2022/09/15 14:12:29;;;;;;;22.13;9.48;;;;;;;;;;6256929;23;20020;-77
2022/09/15 14:15:22;;;;;;;16.15;8.10;;;;;;;;;;6256410;23;20015;-78
2022/09/15 14:18:18;;;;;;;21.42;8.27;;;;;;;;;;6256498;23;20020;-77
2022/09/15 14:21:04;;;;;;;35.10;11.38;;;;;;;;;;6257113;23;20012;-77
2022/09/15 14:23:53;;;;;;;26.95;12.32;;;;;;;;;;6257371;23;20019;-78
2022/09/15 14:26:39;;;;;;;46.20;20.95;;;;;;;;;;6256526;23;20020;-78
2022/09/15 14:29:27;;;;;;;30.15;13.27;;;;;;;;;;6256448;23;20016;-83
2022/09/15 14:32:15;;;;;;;38.63;16.88;;;;;;;;;;6255203;23;20016;-78
2022/09/15 14:35:06;;;;;;;26.77;12.38;;;;;;;;;;6254212;23;20012;-78
2022/09/15 14:37:55;;;;;;;26.55;13.57;;;;;;;;;;6254761;23;20020;-78
2022/09/15 14:40:41;;;;;;;31.95;18.20;;;;;;;;;;6254043;23;20441;-77
2022/09/15 14:43:30;;;;;;;90.32;17.55;;;;;;;;;;6256428;23;20012;-78
2022/09/15 14:46:17;;;;;;;41.45;11.35;;;;;;;;;;6256733;23;20248;-77
2022/09/15 14:49:10;;;;;;;22.67;11.30;;;;;;;;;;6255787;23;20015;-77
2022/09/15 14:51:56;;;;;;;21.00;11.30;;;;;;;;;;6257093;23;20016;-79
2022/09/15 14:54:41;;;;;;;23.52;12.20;;;;;;;;;;6253791;23;20024;-79
2022/09/15 14:57:30;;;;;;;34.60;14.40;;;;;;;;;;6256744;23;20454;-78
2022/09/15 15:00:21;;;;;;;30.45;14.02;;;;;;;;;;6256529;23;20334;-79
2022/09/15 15:03:39;;;;;;;42.42;17.73;;;;;;;;;;6256824;23;20338;-81
2022/09/15 15:06:33;;;;;;;125.22;44.03;;;;;;;;;;6257244;23;20020;-80
2022/09/15 15:09:42;;;;;;;78.47;32.22;;;;;;;;;;6256405;23;20015;-79
2022/09/15 15:12:33;;;;;;;37.42;13.48;;;;;;;;;;6256587;23;20442;-79
2022/09/15 15:15:19;;;;;;;34.45;14.00;;;;;;;;;;6256454;23;20020;-76
2022/09/15 15:18:25;;;;;;;39.13;17.33;;;;;;;;;;6256504;23;20016;-74
2022/09/15 15:21:43;;;;;;;69.35;29.67;;;;;;;;;;6256189;23;20430;-74
2022/09/15 15:24:29;;;;;;;40.55;19.50;;;;;;;;;;6218366;23;20020;-76
2022/09/15 15:27:33;;;;;;;32.78;15.13;;;;;;;;;;6256237;23;20377;-76
2022/09/15 15:30:28;;;;;;;28.15;14.98;;;;;;;;;;6254924;23;20021;-76
2022/09/15 15:33:26;;;;;;;24.30;12.13;;;;;;;;;;6256161;23;20016;-75
2022/09/15 15:36:11;;;;;;;27.63;13.10;;;;;;;;;;6256166;23;20016;-75
2022/09/15 15:39:00;;;;;;;27.70;13.73;;;;;;;;;;6256373;23;20024;-75
2022/09/15 15:41:45;;;;;;;54.67;22.38;;;;;;;;;;6256226;23;20369;-75
2022/09/15 15:44:31;;;;;;;40.35;17.88;;;;;;;;;;6256479;23;20012;-75
2022/09/15 15:47:19;;;;;;;38.85;17.30;;;;;;;;;;6256272;23;20020;-75
2022/09/15 15:50:19;;;;;;;22.40;11.57;;;;;;;;;;6253948;23;20020;-76
2022/09/15 15:53:05;;;;;;;23.20;10.13;;;;;;;;;;6252442;23;20373;-76
2022/09/15 15:55:50;;;;;;;51.67;16.90;;;;;;;;;;6255515;23;20016;-75
2022/09/15 15:58:36;;;;;;;28.60;12.40;;;;;;;;;;6254331;23;20020;-75
2022/09/15 16:01:21;;;;;;;23.33;11.23;;;;;;;;;;6255813;23;20016;-74
2022/09/15 16:04:07;;;;;;;25.67;13.70;;;;;;;;;;6256221;23;20020;-75
2022/09/15 16:06:53;;;;;;;22.83;10.15;;;;;;;;;;6256206;23;20366;-74
2022/09/15 16:09:38;;;;;;;25.15;10.38;;;;;;;;;;6254619;23;20438;-77
2022/09/15 16:12:23;;;;;;;61.33;25.20;;;;;;;;;;6256356;23;20346;-77
2022/09/15 16:15:18;;;;;;;28.05;10.98;;;;;;;;;;6256047;23;20020;-77
2022/09/15 16:18:04;;;;;;;27.50;12.30;;;;;;;;;;6256183;23;20042;-77
2022/09/15 16:20:49;;;;;;;34.30;14.90;;;;;;;;;;6257471;23;20048;-77
2022/09/15 16:23:35;;;;;;;28.52;12.98;;;;;;;;;;6257782;23;20345;-77
2022/09/15 16:26:23;;;;;;;136.10;46.53;;;;;;;;;;6256947;23;20020;-76
2022/09/15 16:29:08;;;;;;;81.28;33.75;;;;;;;;;;6258486;23;20016;-77
2022/09/15 16:31:54;;;;;;;78.88;31.40;;;;;;;;;;6257714;23;20020;-76
2022/09/15 16:34:39;;;;;;;53.67;22.48;;;;;;;;;;6257688;23;20342;-76
2022/09/15 16:37:25;;;;;;;45.50;20.23;;;;;;;;;;6256310;23;20020;-77
2022/09/15 16:40:11;;;;;;;40.60;18.05;;;;;;;;;;6257157;23;20016;-77
2022/09/15 16:42:56;;;;;;;36.72;16.17;;;;;;;;;;6257371;23;20020;-77
2022/09/15 16:45:42;;;;;;;33.83;14.52;;;;;;;;;;6257400;23;20024;-77
2022/09/15 16:48:28;;;;;;;38.05;15.95;;;;;;;;;;6257655;23;20016;-75
2022/09/15 16:51:19;;;;;;;38.15;17.48;;;;;;;;;;6257452;23;20020;-77
2022/09/15 16:54:13;;;;;;;37.72;18.20;;;;;;;;;;6249919;23;20426;-79
2022/09/15 16:56:58;;;;;;;47.67;19.15;;;;;;;;;;6258048;23;20015;-78
2022/09/15 16:59:43;;;;;;;56.92;23.50;;;;;;;;;;6257889;23;20063;-80
2022/09/15 17:02:29;;;;;;;48.60;22.50;;;;;;;;;;6258111;23;20012;-78
2022/09/15 17:05:19;;;;;;;76.80;33.85;;;;;;;;;;6258030;23;20016;-78
2022/09/15 17:08:07;;;;;;;95.50;38.35;;;;;;;;;;6258088;23;20016;-77
2022/09/15 17:10:55;;;;;;;96.32;41.42;;;;;;;;;;6257888;23;20016;-77
2022/09/15 17:13:41;;;;;;;126.80;47.08;;;;;;;;;;6257928;23;20020;-77
2022/09/15 17:16:26;;;;;;;123.65;49.70;;;;;;;;;;6260591;23;20020;-77
2022/09/15 17:19:11;;;;;;;122.88;44.38;;;;;;;;;;6258629;23;20020;-78
2022/09/15 17:21:57;;;;;;;96.18;39.70;;;;;;;;;;6258303;23;20434;-77
2022/09/15 17:24:43;;;;;;;60.20;25.48;;;;;;;;;;6257874;23;20012;-77
2022/09/15 17:27:28;;;;;;;45.67;20.67;;;;;;;;;;6257342;23;20016;-78
2022/09/15 17:30:15;;;;;;;39.67;17.52;;;;;;;;;;6257171;23;20012;-79
2022/09/15 17:33:03;;;;;;;28.67;15.38;;;;;;;;;;6257069;23;20020;-79
2022/09/15 17:35:48;;;;;;;34.30;15.82;;;;;;;;;;6257834;23;20020;-79
2022/09/15 17:38:34;;;;;;;39.92;19.60;;;;;;;;;;6257284;23;20434;-79
2022/09/15 17:41:21;;;;;;;59.63;28.58;;;;;;;;;;6257340;23;20012;-78
2022/09/15 17:44:12;;;;;;;69.32;27.80;;;;;;;;;;6257815;23;20020;-76
2022/09/15 17:46:57;;;;;;;74.53;27.90;;;;;;;;;;6257279;23;20020;-79
2022/09/15 17:49:43;;;;;;;54.42;24.42;;;;;;;;;;6257278;23;20433;-80
2022/09/15 17:52:28;;;;;;;46.25;22.95;;;;;;;;;;6256584;23;20016;-79
2022/09/15 17:55:20;;;;;;;48.63;22.23;;;;;;;;;;6257185;23;20422;-81
2022/09/15 17:58:06;;;;;;;52.20;23.48;;;;;;;;;;6257340;23;20011;-82
2022/09/15 18:00:52;;;;;;;49.67;23.58;;;;;;;;;;6256843;23;20008;-81
2022/09/15 18:03:38;;;;;;;50.00;21.52;;;;;;;;;;6257477;23;20016;-82
2022/09/15 18:06:29;;;;;;;36.75;18.65;;;;;;;;;;6257054;23;20020;-83
2022/09/15 18:09:20;;;;;;;42.85;17.95;;;;;;;;;;6256627;23;20020;-82
2022/09/15 18:12:09;;;;;;;39.03;17.80;;;;;;;;;;6255103;23;20020;-83
2022/09/15 18:14:56;;;;;;;32.75;17.08;;;;;;;;;;6256678;23;20020;-82
2022/09/15 18:17:42;;;;;;;32.60;15.23;;;;;;;;;;6234617;23;20350;-81
2022/09/15 18:20:35;;;;;;;28.40;13.93;;;;;;;;;;6256613;23;20012;-82
2022/09/15 18:23:23;;;;;;;27.25;13.77;;;;;;;;;;6254619;23;20016;-83
2022/09/15 18:26:14;;;;;;;23.15;12.80;;;;;;;;;;6256281;23;20350;-85
2022/09/15 18:29:00;;;;;;;29.50;12.52;;;;;;;;;;6256279;23;20020;-85
2022/09/15 18:31:51;;;;;;;28.52;11.60;;;;;;;;;;6256410;23;20020;-83
2022/09/15 18:34:36;;;;;;;23.73;11.10;;;;;;;;;;6256798;23;20016;-82
2022/09/15 18:37:21;;;;;;;37.00;14.23;;;;;;;;;;6256781;23;20016;-83
2022/09/15 18:40:15;;;;;;;35.67;14.07;;;;;;;;;;6257124;23;20338;-81
2022/09/15 18:43:06;;;;;;;48.65;20.80;;;;;;;;;;6256739;23;20015;-81
2022/09/15 18:45:58;;;;;;;34.78;17.02;;;;;;;;;;6256875;23;20020;-81
2022/09/15 18:48:43;;;;;;;50.20;18.83;;;;;;;;;;6257062;23;20012;-79
2022/09/15 18:51:35;;;;;;;40.22;17.33;;;;;;;;;;6256423;23;20012;-80
2022/09/15 18:54:20;;;;;;;43.83;18.17;;;;;;;;;;6256622;23;20438;-79
2022/09/15 18:57:08;;;;;;;43.03;17.58;;;;;;;;;;6256363;23;20434;-80
2022/09/15 18:59:53;;;;;;;47.53;18.60;;;;;;;;;;6256684;23;20342;-80
2022/09/15 19:02:39;;;;;;;49.28;20.10;;;;;;;;;;6256708;23;20020;-80
2022/09/15 19:05:25;;;;;;;44.97;21.52;;;;;;;;;;6256591;23;20012;-81
2022/09/15 19:08:15;;;;;;;40.88;19.95;;;;;;;;;;6257132;23;20326;-81
2022/09/15 19:11:01;;;;;;;39.28;19.00;;;;;;;;;;6256274;23;20020;-82
2022/09/15 19:13:46;;;;;;;39.92;15.57;;;;;;;;;;6256641;23;20020;-80
2022/09/15 19:16:37;;;;;;;27.52;11.77;;;;;;;;;;6256652;23;20433;-80
2022/09/15 19:19:23;;;;;;;24.17;10.98;;;;;;;;;;6234035;23;20024;-80